createdAt,value
2017-05-04T00:00:23.544Z,97.67
2017-05-04T00:01:37.398Z,97.76
2017-05-04T00:02:51.576Z,97.86
2017-05-04T00:04:06.365Z,97.38
2017-05-04T00:05:20.479Z,97.67
2017-05-04T00:06:34.207Z,97.76
2017-05-04T00:07:48.298Z,97.76
2017-05-04T00:09:02.059Z,97.67
2017-05-04T00:10:15.925Z,97.67
2017-05-04T00:11:30.314Z,97.09
2017-05-04T00:12:44.213Z,97.76
2017-05-04T00:13:58.628Z,97.76
2017-05-04T00:15:13.062Z,97.76
2017-05-04T00:16:26.307Z,97.67
2017-05-04T00:17:40.677Z,97.96
2017-05-04T00:18:55.023Z,97.76
2017-05-04T00:20:09.733Z,97.76
2017-05-04T00:21:24.137Z,97.76
2017-05-04T00:22:38.390Z,97.38
2017-05-04T00:23:52.238Z,97.67
2017-05-04T00:25:05.913Z,97.81
2017-05-04T00:26:20.079Z,98.1
2017-05-04T00:27:34.349Z,98.29
2017-05-04T00:28:48.086Z,98.19
2017-05-04T00:30:02.447Z,98.19
2017-05-04T00:31:16.232Z,98.34
2017-05-04T00:32:30.595Z,98.63
2017-05-04T00:33:44.463Z,97.91
2017-05-04T00:34:58.701Z,98.34
2017-05-04T00:36:13.150Z,98.05
2017-05-04T00:37:27.645Z,98.39
2017-05-04T00:38:41.591Z,98.14
2017-05-04T00:39:56.015Z,97.81
2017-05-04T00:41:10.651Z,98.44
2017-05-04T00:42:24.949Z,98.34
2017-05-04T00:43:39.277Z,98.44
2017-05-04T00:44:53.836Z,98.53
2017-05-04T00:46:08.025Z,97.96
2017-05-04T00:47:21.127Z,98.29
2017-05-04T00:48:33.319Z,97.96
2017-05-04T00:49:46.110Z,98.86
2017-05-04T00:50:59.092Z,98.96
2017-05-04T00:52:11.395Z,98.86
2017-05-04T00:53:24.179Z,98.96
2017-05-04T00:54:35.998Z,98.48
2017-05-04T00:55:48.780Z,99.15
2017-05-04T00:57:01.866Z,99.06
2017-05-04T00:58:14.646Z,98.86
2017-05-04T00:59:27.425Z,98.86
2017-05-04T01:00:40.209Z,99.25
2017-05-04T01:01:52.992Z,99.44
2017-05-04T01:03:05.777Z,99.44
2017-05-04T01:04:18.080Z,99.06
2017-05-04T01:05:30.863Z,99.25
2017-05-04T01:06:43.644Z,98.96
2017-05-04T01:07:56.159Z,98.77
2017-05-04T01:09:08.943Z,98.86
2017-05-04T01:10:21.240Z,99.15
2017-05-04T01:11:34.023Z,99.01
2017-05-04T01:12:46.810Z,97.96
2017-05-04T01:13:59.593Z,98.19
2017-05-04T01:15:11.409Z,98.34
2017-05-04T01:16:23.708Z,98.19
2017-05-04T01:17:36.489Z,98.29
2017-05-04T01:19:02.868Z,98.29
2017-05-04T01:20:15.174Z,98.1
2017-05-04T01:21:27.959Z,98
2017-05-04T01:22:40.257Z,98
2017-05-04T01:23:53.038Z,98.24
2017-05-04T01:25:05.334Z,98.48
2017-05-04T01:26:17.637Z,98.19
2017-05-04T01:27:29.459Z,98.29
2017-05-04T01:28:42.520Z,98.48
2017-05-04T01:29:55.306Z,98.14
2017-05-04T01:31:08.085Z,98.1
2017-05-04T01:32:20.866Z,98.96
2017-05-04T01:33:33.647Z,98.86
2017-05-04T01:34:46.432Z,98.68
2017-05-04T01:35:59.219Z,98.77
2017-05-04T01:37:11.527Z,97.91
2017-05-04T01:38:24.337Z,98.29
2017-05-04T01:39:37.375Z,98.86
2017-05-04T01:40:50.168Z,97.91
2017-05-04T01:42:02.478Z,98.19
2017-05-04T01:43:15.298Z,98.86
2017-05-04T01:44:28.103Z,98.77
2017-05-04T01:45:40.904Z,98.48
2017-05-04T01:46:53.695Z,98.19
2017-05-04T01:48:06.487Z,98
2017-05-04T01:49:18.800Z,98.39
2017-05-04T01:50:31.593Z,98.48
2017-05-04T01:51:44.379Z,98.39
2017-05-04T01:52:57.169Z,98.19
2017-05-04T01:54:09.484Z,98.48
2017-05-04T01:55:22.278Z,98.39
2017-05-04T01:56:35.377Z,98.19
2017-05-04T01:57:48.178Z,97.91
2017-05-04T01:59:00.987Z,98.77
2017-05-04T02:00:13.778Z,99.06
2017-05-04T02:01:26.085Z,98.39
2017-05-04T02:02:38.875Z,98.48
2017-05-04T02:03:51.668Z,98.48
2017-05-04T02:05:04.457Z,98.68
2017-05-04T02:06:17.249Z,98.86
2017-05-04T02:07:30.036Z,98.48
2017-05-04T02:08:42.831Z,98.48
2017-05-04T02:09:55.633Z,98.77
2017-05-04T02:11:08.423Z,98.86
2017-05-04T02:12:20.731Z,98.86
2017-05-04T02:13:33.525Z,98.68
2017-05-04T02:14:45.851Z,98.68
2017-05-04T02:15:58.643Z,98.68
2017-05-04T02:17:11.429Z,99.06
2017-05-04T02:18:38.314Z,99.35
2017-05-04T02:19:51.109Z,99.1
2017-05-04T02:21:03.902Z,99.99
2017-05-04T02:22:16.207Z,99.1
2017-05-04T02:23:28.992Z,99.58
2017-05-04T02:24:41.776Z,99.68
2017-05-04T02:25:54.561Z,99.1
2017-05-04T02:27:07.341Z,99.1
2017-05-04T02:28:20.375Z,99.2
2017-05-04T02:29:33.161Z,98.96
2017-05-04T02:30:45.460Z,99.35
2017-05-04T02:31:58.244Z,98.48
2017-05-04T02:33:11.031Z,98.48
2017-05-04T02:34:23.536Z,98.77
2017-05-04T02:35:36.320Z,98.77
2017-05-04T02:36:49.128Z,98.68
2017-05-04T02:38:01.430Z,98.68
2017-05-04T02:39:13.730Z,98.96
2017-05-04T02:40:26.519Z,98.82
2017-05-04T02:41:39.303Z,98.77
2017-05-04T02:42:52.097Z,98.63
2017-05-04T02:44:04.400Z,98.68
2017-05-04T02:45:17.394Z,98.63
2017-05-04T02:46:30.207Z,98.68
2017-05-04T02:47:42.997Z,99.25
2017-05-04T02:48:55.787Z,98.86
2017-05-04T02:50:08.783Z,98.77
2017-05-04T02:51:21.565Z,98.77
2017-05-04T02:52:34.348Z,98.86
2017-05-04T02:53:47.140Z,98.48
2017-05-04T02:54:59.444Z,99.35
2017-05-04T02:56:12.428Z,99.15
2017-05-04T02:57:25.212Z,99.58
2017-05-04T02:58:37.513Z,99.78
2017-05-04T02:59:50.299Z,99.63
2017-05-04T03:01:02.120Z,99.68
2017-05-04T03:02:14.895Z,99.1
2017-05-04T03:03:27.685Z,99.35
2017-05-04T03:04:40.471Z,99.06
2017-05-04T03:05:53.256Z,99.06
2017-05-04T03:07:06.350Z,99.15
2017-05-04T03:08:18.656Z,99.44
2017-05-04T03:09:31.447Z,98.39
2017-05-04T03:10:44.239Z,98.96
2017-05-04T03:11:57.336Z,99.06
2017-05-04T03:13:09.650Z,99.25
2017-05-04T03:14:22.450Z,99.2
2017-05-04T03:15:34.766Z,99.4
2017-05-04T03:16:47.559Z,99.1
2017-05-04T03:18:00.351Z,99.78
2017-05-04T03:19:13.149Z,99.97
2017-05-04T03:20:25.949Z,99.58
2017-05-04T03:21:38.740Z,99.87
2017-05-04T03:22:51.528Z,99.87
2017-05-04T03:24:04.318Z,99.99
2017-05-04T03:25:17.105Z,99.99
2017-05-04T03:26:28.930Z,99.99
2017-05-04T03:27:41.721Z,99.99
2017-05-04T03:28:54.508Z,99.99
2017-05-04T03:30:06.813Z,99.97
2017-05-04T03:31:19.605Z,99.99
2017-05-04T03:32:32.410Z,99.99
2017-05-04T03:33:45.207Z,99.99
2017-05-04T03:34:57.516Z,99.68
2017-05-04T03:36:09.826Z,99.2
2017-05-04T03:37:22.621Z,99.68
2017-05-04T03:38:34.958Z,99.97
2017-05-04T03:39:47.745Z,99.58
2017-05-04T03:41:00.540Z,99.49
2017-05-04T03:42:13.333Z,99.99
2017-05-04T03:43:25.643Z,99.68
2017-05-04T03:44:36.980Z,99.58
2017-05-04T03:45:49.775Z,99.97
2017-05-04T03:47:02.569Z,99.78
2017-05-04T03:48:15.364Z,99.97
2017-05-04T03:49:27.676Z,99.78
2017-05-04T03:50:40.489Z,99.97
2017-05-04T03:51:53.281Z,99.4
2017-05-04T03:53:06.062Z,99.58
2017-05-04T03:54:18.363Z,99.78
2017-05-04T03:55:31.450Z,99.78
2017-05-04T03:56:44.234Z,99.58
2017-05-04T03:57:57.013Z,99.68
2017-05-04T03:59:09.309Z,99.97
2017-05-04T04:00:21.612Z,99.58
2017-05-04T04:01:34.393Z,99.68
2017-05-04T04:02:47.178Z,99.3
2017-05-04T04:03:59.977Z,99.1
2017-05-04T04:05:12.765Z,99.1
2017-05-04T04:06:25.546Z,99.78
2017-05-04T04:07:38.329Z,99.68
2017-05-04T04:08:50.632Z,99.97
2017-05-04T04:10:03.416Z,99.58
2017-05-04T04:11:15.235Z,99.97
2017-05-04T04:12:27.834Z,99.87
2017-05-04T04:13:40.613Z,99.49
2017-05-04T04:14:53.441Z,99.97
2017-05-04T04:16:06.794Z,99.78
2017-05-04T04:17:19.094Z,99.58
2017-05-04T04:18:31.444Z,99.87
2017-05-04T04:19:44.227Z,99.78
2017-05-04T04:20:56.049Z,98.91
2017-05-04T04:22:08.833Z,99.87
2017-05-04T04:23:21.615Z,99.78
2017-05-04T04:24:33.915Z,99.49
2017-05-04T04:25:46.695Z,99.99
2017-05-04T04:26:59.474Z,99.99
2017-05-04T04:28:12.458Z,99.87
2017-05-04T04:29:25.246Z,99.99
2017-05-04T04:30:37.067Z,99.99
2017-05-04T04:31:49.856Z,99.99
2017-05-04T04:33:02.635Z,99.99
2017-05-04T04:34:15.238Z,99.78
2017-05-04T04:35:27.542Z,99.68
2017-05-04T04:36:40.322Z,99.99
2017-05-04T04:37:52.144Z,99.99
2017-05-04T04:39:04.929Z,99.99
2017-05-04T04:40:17.708Z,99.99
2017-05-04T04:41:30.490Z,99.99
2017-05-04T04:42:43.275Z,99.99
2017-05-04T04:43:56.072Z,99.99
2017-05-04T04:45:08.681Z,99.99
2017-05-04T04:46:21.458Z,99.99
2017-05-04T04:47:33.281Z,99.99
2017-05-04T04:48:45.587Z,99.87
2017-05-04T04:49:58.084Z,99.97
2017-05-04T04:51:10.863Z,99.87
2017-05-04T04:52:22.677Z,99.68
2017-05-04T04:53:35.455Z,99.97
2017-05-04T04:54:47.755Z,99.99
2017-05-04T04:56:00.538Z,99.99
2017-05-04T04:57:13.322Z,99.99
2017-05-04T04:58:26.107Z,99.99
2017-05-04T04:59:38.411Z,99.99
2017-05-04T05:00:51.199Z,99.87
2017-05-04T05:02:03.979Z,99.87
2017-05-04T05:03:16.278Z,99.78
2017-05-04T05:04:29.059Z,99.78
2017-05-04T05:05:41.877Z,99.99
2017-05-04T05:06:54.477Z,99.99
2017-05-04T05:08:06.781Z,99.99
2017-05-04T05:09:19.082Z,99.87
2017-05-04T05:10:31.867Z,99.87
2017-05-04T05:11:44.854Z,99.99
2017-05-04T05:12:57.631Z,99.78
2017-05-04T05:14:09.448Z,99.87
2017-05-04T05:15:22.237Z,99.99
2017-05-04T05:16:35.018Z,99.99
2017-05-04T05:17:47.795Z,99.99
2017-05-04T05:19:00.115Z,99.99
2017-05-04T05:20:12.892Z,99.99
2017-05-04T05:21:25.193Z,99.99
2017-05-04T05:22:38.273Z,99.99
2017-05-04T05:23:51.053Z,99.99
2017-05-04T05:25:03.357Z,99.99
2017-05-04T05:26:15.659Z,99.99
2017-05-04T05:27:28.440Z,99.99
2017-05-04T05:28:40.945Z,99.99
2017-05-04T05:29:53.250Z,99.99
2017-05-04T05:31:06.031Z,99.99
2017-05-04T05:32:18.815Z,99.99
2017-05-04T05:33:31.895Z,99.99
2017-05-04T05:34:44.194Z,99.99
2017-05-04T05:35:56.985Z,99.99
2017-05-04T05:37:09.766Z,99.99
2017-05-04T05:38:22.063Z,99.99
2017-05-04T05:39:35.147Z,99.99
2017-05-04T05:40:47.448Z,99.99
2017-05-04T05:42:00.231Z,99.99
2017-05-04T05:43:12.535Z,99.99
2017-05-04T05:44:25.035Z,99.99
2017-05-04T05:45:37.817Z,99.99
2017-05-04T05:46:50.604Z,99.99
2017-05-04T05:48:03.383Z,99.99
2017-05-04T05:49:16.166Z,99.99
2017-05-04T05:50:28.949Z,99.99
2017-05-04T05:51:40.764Z,99.99
2017-05-04T05:52:53.546Z,99.99
2017-05-04T05:54:06.329Z,99.99
2017-05-04T05:55:18.626Z,99.99
2017-05-04T05:56:31.404Z,99.99
2017-05-04T05:57:43.222Z,99.99
2017-05-04T05:58:56.001Z,99.99
2017-05-04T06:00:08.783Z,99.99
2017-05-04T06:01:21.866Z,99.99
2017-05-04T06:02:34.649Z,99.99
2017-05-04T06:03:47.431Z,99.99
2017-05-04T06:05:00.220Z,99.99
2017-05-04T06:06:13.205Z,99.99
2017-05-04T06:07:25.503Z,99.99
2017-05-04T06:08:37.805Z,99.99
2017-05-04T06:09:50.586Z,99.99
2017-05-04T06:11:03.370Z,99.99
2017-05-04T06:12:16.449Z,99.99
2017-05-04T06:13:29.231Z,99.99
2017-05-04T06:14:42.010Z,99.99
2017-05-04T06:15:54.796Z,99.99
2017-05-04T06:17:06.614Z,99.99
2017-05-04T06:18:19.418Z,99.99
2017-05-04T06:19:32.202Z,99.99
2017-05-04T06:20:44.980Z,99.99
2017-05-04T06:21:57.284Z,99.99
2017-05-04T06:23:10.368Z,99.99
2017-05-04T06:24:23.150Z,99.99
2017-05-04T06:25:35.933Z,99.99
2017-05-04T06:26:48.229Z,99.99
2017-05-04T06:28:01.311Z,99.99
2017-05-04T06:29:14.092Z,99.99
2017-05-04T06:30:26.876Z,99.99
2017-05-04T06:31:39.651Z,99.99
2017-05-04T06:32:52.452Z,99.99
2017-05-04T06:34:04.576Z,99.99
2017-05-04T06:35:16.875Z,99.99
2017-05-04T06:36:29.660Z,99.99
2017-05-04T06:37:42.437Z,99.99
2017-05-04T06:38:55.218Z,99.99
2017-05-04T06:40:07.996Z,99.99
2017-05-04T06:41:19.820Z,99.99
2017-05-04T06:42:32.610Z,99.99
2017-05-04T06:43:45.392Z,99.99
2017-05-04T06:44:57.895Z,99.99
2017-05-04T06:46:10.191Z,99.99
2017-05-04T06:47:22.974Z,99.99
2017-05-04T06:48:35.270Z,99.99
2017-05-04T06:49:48.248Z,99.99
2017-05-04T06:51:01.036Z,99.99
2017-05-04T06:52:13.820Z,99.99
2017-05-04T06:53:26.135Z,99.99
2017-05-04T06:54:38.933Z,99.99
2017-05-04T06:55:51.238Z,99.99
2017-05-04T06:57:03.059Z,99.99
2017-05-04T06:58:15.367Z,99.99
2017-05-04T06:59:27.675Z,99.99
2017-05-04T07:00:40.463Z,99.99
2017-05-04T07:01:53.247Z,99.99
2017-05-04T07:03:06.034Z,99.99
2017-05-04T07:04:18.351Z,99.99
2017-05-04T07:05:30.653Z,99.99
2017-05-04T07:06:43.641Z,99.99
2017-05-04T07:07:56.442Z,99.99
2017-05-04T07:09:09.242Z,99.99
2017-05-04T07:10:22.034Z,99.99
2017-05-04T07:11:35.017Z,99.99
2017-05-04T07:12:47.806Z,99.99
2017-05-04T07:14:00.117Z,99.99
2017-05-04T07:15:12.434Z,99.99
2017-05-04T07:16:24.743Z,99.99
2017-05-04T07:17:37.729Z,99.99
2017-05-04T07:18:50.519Z,99.99
2017-05-04T07:20:03.309Z,99.99
2017-05-04T07:21:15.134Z,99.99
2017-05-04T07:22:27.439Z,99.99
2017-05-04T07:23:39.266Z,99.99
2017-05-04T07:24:52.060Z,99.99
2017-05-04T07:26:04.853Z,99.99
2017-05-04T07:27:17.635Z,99.99
2017-05-04T07:28:30.418Z,99.99
2017-05-04T07:29:43.211Z,99.99
2017-05-04T07:30:56.004Z,99.99
2017-05-04T07:32:07.840Z,99.99
2017-05-04T07:33:20.635Z,99.99
2017-05-04T07:34:32.949Z,99.99
2017-05-04T07:35:45.258Z,99.99
2017-05-04T07:36:57.572Z,99.99
2017-05-04T07:38:09.873Z,99.99
2017-05-04T07:39:22.476Z,99.99
2017-05-04T07:40:34.780Z,99.99
2017-05-04T07:41:47.578Z,99.99
2017-05-04T07:43:00.366Z,99.99
2017-05-04T07:44:13.356Z,99.99
2017-05-04T07:45:25.662Z,99.99
2017-05-04T07:46:38.463Z,99.99
2017-05-04T07:47:50.780Z,99.99
2017-05-04T07:49:03.573Z,99.99
2017-05-04T07:50:16.173Z,99.99
2017-05-04T07:51:28.968Z,99.99
2017-05-04T07:52:41.760Z,99.99
2017-05-04T07:53:54.547Z,99.99
2017-05-04T07:55:07.054Z,99.99
2017-05-04T07:56:19.355Z,99.99
2017-05-04T07:57:31.663Z,99.99
2017-05-04T07:58:44.452Z,99.99
2017-05-04T07:59:57.246Z,99.99
2017-05-04T08:01:37.688Z,99.99
2017-05-04T08:02:50.478Z,99.99
2017-05-04T08:04:02.787Z,99.99
2017-05-04T08:05:14.340Z,99.99
2017-05-04T08:06:27.131Z,99.99
2017-05-04T08:07:39.919Z,99.99
2017-05-04T08:08:52.711Z,99.99
2017-05-04T08:10:04.532Z,99.99
2017-05-04T08:11:15.872Z,99.99
2017-05-04T08:12:28.659Z,99.99
2017-05-04T08:13:41.446Z,99.99
2017-05-04T08:14:54.241Z,99.99
2017-05-04T08:16:07.036Z,99.99
2017-05-04T08:17:19.340Z,99.99
2017-05-04T08:18:31.654Z,99.99
2017-05-04T08:19:43.011Z,99.99
2017-05-04T08:20:55.316Z,99.99
2017-05-04T08:22:07.618Z,99.99
2017-05-04T08:23:19.436Z,99.99
2017-05-04T08:24:32.547Z,99.99
2017-05-04T08:25:45.325Z,99.99
2017-05-04T08:26:58.100Z,99.99
2017-05-04T08:28:11.182Z,99.99
2017-05-04T08:29:23.019Z,99.99
2017-05-04T08:30:35.314Z,99.99
2017-05-04T08:31:48.097Z,99.99
2017-05-04T08:33:01.180Z,99.99
2017-05-04T08:34:13.960Z,99.99
2017-05-04T08:35:26.265Z,99.99
2017-05-04T08:36:39.047Z,99.99
2017-05-04T08:37:51.346Z,99.99
2017-05-04T08:39:04.426Z,99.99
2017-05-04T08:40:16.724Z,99.99
2017-05-04T08:41:29.026Z,99.99
2017-05-04T08:42:41.804Z,99.99
2017-05-04T08:43:54.585Z,99.99
2017-05-04T08:45:07.362Z,99.99
2017-05-04T08:46:20.158Z,99.99
2017-05-04T08:47:32.941Z,99.99
2017-05-04T08:48:44.765Z,99.99
2017-05-04T08:49:57.073Z,99.99
2017-05-04T08:51:09.378Z,99.99
2017-05-04T08:52:21.674Z,99.99
2017-05-04T08:53:34.460Z,99.99
2017-05-04T08:54:47.549Z,99.99
2017-05-04T08:56:00.332Z,99.99
2017-05-04T08:57:12.639Z,99.99
2017-05-04T08:58:24.461Z,99.99
2017-05-04T08:59:36.282Z,99.99
2017-05-04T09:00:48.581Z,99.99
2017-05-04T09:02:00.876Z,99.99
2017-05-04T09:03:13.173Z,99.99
2017-05-04T09:04:25.473Z,99.99
2017-05-04T09:05:38.270Z,99.99
2017-05-04T09:06:51.347Z,99.99
2017-05-04T09:08:03.645Z,99.99
2017-05-04T09:09:15.465Z,99.99
2017-05-04T09:10:27.777Z,99.99
2017-05-04T09:11:40.092Z,99.99
2017-05-04T09:12:52.872Z,99.99
2017-05-04T09:14:05.177Z,99.99
2017-05-04T09:15:17.012Z,99.99
2017-05-04T09:16:29.314Z,99.99
2017-05-04T09:17:41.817Z,99.99
2017-05-04T09:18:54.598Z,99.99
2017-05-04T09:20:07.387Z,99.99
2017-05-04T09:21:19.697Z,99.99
2017-05-04T09:22:32.520Z,99.99
2017-05-04T09:23:45.304Z,99.99
2017-05-04T09:24:58.093Z,99.99
2017-05-04T09:26:10.397Z,99.99
2017-05-04T09:27:22.915Z,99.99
2017-05-04T09:28:35.715Z,99.99
2017-05-04T09:29:48.509Z,99.99
2017-05-04T09:31:01.295Z,99.99
2017-05-04T09:32:13.602Z,99.99
2017-05-04T09:33:26.413Z,99.99
2017-05-04T09:34:39.215Z,99.99
2017-05-04T09:35:52.008Z,99.99
2017-05-04T09:37:04.318Z,99.99
2017-05-04T09:38:16.626Z,99.99
2017-05-04T09:39:29.414Z,99.99
2017-05-04T09:40:42.204Z,99.99
2017-05-04T09:41:54.996Z,99.99
2017-05-04T09:43:07.307Z,99.99
2017-05-04T09:44:19.917Z,99.99
2017-05-04T09:45:32.715Z,99.99
2017-05-04T09:46:45.018Z,99.99
2017-05-04T09:47:57.804Z,99.99
2017-05-04T09:49:10.114Z,99.99
2017-05-04T09:50:23.113Z,99.99
2017-05-04T09:51:35.418Z,99.99
2017-05-04T09:52:48.208Z,99.99
2017-05-04T09:54:00.998Z,99.99
2017-05-04T09:55:13.501Z,99.99
2017-05-04T09:56:25.327Z,99.99
2017-05-04T09:57:38.128Z,99.99
2017-05-04T09:58:50.913Z,99.99
2017-05-04T10:00:03.225Z,99.99
2017-05-04T10:01:15.828Z,99.99
2017-05-04T10:02:28.622Z,99.99
2017-05-04T10:03:41.410Z,99.99
2017-05-04T10:04:54.196Z,99.99
2017-05-04T10:06:06.707Z,99.99
2017-05-04T10:07:19.504Z,99.99
2017-05-04T10:08:32.302Z,99.99
2017-05-04T10:09:45.092Z,99.99
2017-05-04T10:10:57.885Z,99.99
2017-05-04T10:12:10.195Z,99.99
2017-05-04T10:13:22.024Z,99.99
2017-05-04T10:14:34.329Z,99.99
2017-05-04T10:15:46.630Z,99.99
2017-05-04T10:16:59.614Z,99.99
2017-05-04T10:18:12.411Z,99.99
2017-05-04T10:19:25.201Z,99.99
2017-05-04T10:20:37.035Z,99.99
2017-05-04T10:21:49.830Z,99.99
2017-05-04T10:23:02.441Z,99.99
2017-05-04T10:24:14.753Z,99.99
2017-05-04T10:25:27.058Z,99.99
2017-05-04T10:26:39.844Z,99.99
2017-05-04T10:27:52.639Z,99.99
2017-05-04T10:29:05.427Z,99.99
2017-05-04T10:30:18.218Z,99.99
2017-05-04T10:31:30.529Z,99.99
2017-05-04T10:32:43.317Z,99.99
2017-05-04T10:33:56.315Z,99.99
2017-05-04T10:35:09.107Z,99.99
2017-05-04T10:36:21.892Z,99.99
2017-05-04T10:37:34.207Z,99.99
2017-05-04T10:38:47.196Z,99.99
2017-05-04T10:39:59.979Z,99.99
2017-05-04T10:41:12.276Z,99.99
2017-05-04T10:42:24.571Z,99.99
2017-05-04T10:43:36.870Z,99.99
2017-05-04T10:44:49.658Z,99.99
2017-05-04T10:46:02.438Z,99.99
2017-05-04T10:47:14.738Z,99.99
2017-05-04T10:48:27.519Z,99.99
2017-05-04T10:49:39.824Z,99.99
2017-05-04T10:50:52.609Z,99.99
2017-05-04T10:52:05.388Z,99.99
2017-05-04T10:53:18.172Z,99.99
2017-05-04T10:54:30.472Z,99.99
2017-05-04T10:55:43.252Z,99.99
2017-05-04T10:56:55.581Z,99.99
2017-05-04T10:58:08.360Z,99.99
2017-05-04T10:59:20.659Z,99.99
2017-05-04T11:00:47.517Z,99.92
2017-05-04T11:02:00.299Z,99.06
2017-05-04T11:03:13.081Z,98.68
2017-05-04T11:04:25.381Z,98.48
2017-05-04T11:05:38.161Z,98.1
2017-05-04T11:06:50.938Z,98.1
2017-05-04T11:08:03.722Z,98.19
2017-05-04T11:09:16.506Z,98.48
2017-05-04T11:10:29.287Z,98.39
2017-05-04T11:11:42.267Z,98.29
2017-05-04T11:12:55.047Z,98.1
2017-05-04T11:14:07.836Z,98
2017-05-04T11:15:20.618Z,97.81
2017-05-04T11:16:32.917Z,98.39
2017-05-04T11:17:45.704Z,98.39
2017-05-04T11:18:58.486Z,97.52
2017-05-04T11:20:11.271Z,97.62
2017-05-04T11:21:24.052Z,97.62
2017-05-04T11:22:37.047Z,97.24
2017-05-04T11:23:49.828Z,97.04
2017-05-04T11:25:02.618Z,97.71
2017-05-04T11:26:15.396Z,97.62
2017-05-04T11:27:27.693Z,97.24
2017-05-04T11:28:40.506Z,97.04
2017-05-04T11:29:53.285Z,97.04
2017-05-04T11:31:06.070Z,97.24
2017-05-04T11:32:18.367Z,97.62
2017-05-04T11:33:30.972Z,97.67
2017-05-04T11:34:43.753Z,97.28
2017-05-04T11:35:56.541Z,96.13
2017-05-04T11:37:09.321Z,95.84
2017-05-04T11:38:21.826Z,94.98
2017-05-04T11:39:34.126Z,94.45
2017-05-04T11:40:46.910Z,94.06
2017-05-04T11:41:59.217Z,93.96
2017-05-04T11:43:11.997Z,93.87
2017-05-04T11:44:23.836Z,92.91
2017-05-04T11:45:36.622Z,92.85
2017-05-04T11:46:48.916Z,91.89
2017-05-04T11:48:01.217Z,91.6
2017-05-04T11:49:13.524Z,91.55
2017-05-04T11:50:26.305Z,90.88
2017-05-04T11:51:39.116Z,89.63
2017-05-04T11:52:51.906Z,89.19
2017-05-04T11:54:04.694Z,89.29
2017-05-04T11:55:17.003Z,87.36
2017-05-04T11:56:29.305Z,88.71
2017-05-04T11:57:42.096Z,88.81
2017-05-04T11:58:54.884Z,88.42
2017-05-04T12:00:07.388Z,88.17
2017-05-04T12:01:19.686Z,86.82
2017-05-04T12:02:31.983Z,86.25
2017-05-04T12:03:44.284Z,85.91
2017-05-04T12:04:56.587Z,85.57
2017-05-04T12:06:09.368Z,85.67
2017-05-04T12:07:21.668Z,85.47
2017-05-04T12:08:33.969Z,85.47
2017-05-04T12:09:46.754Z,86.05
2017-05-04T12:10:59.542Z,85.47
2017-05-04T12:12:12.326Z,85.71
2017-05-04T12:13:24.145Z,85.61
2017-05-04T12:14:36.448Z,84.84
2017-05-04T12:15:48.753Z,83.88
2017-05-04T12:17:01.740Z,83.63
2017-05-04T12:18:14.521Z,83.83
2017-05-04T12:19:26.820Z,83.63
2017-05-04T12:20:39.126Z,81.99
2017-05-04T12:21:52.107Z,81.74
2017-05-04T12:23:04.891Z,81.65
2017-05-04T12:24:17.192Z,81.84
2017-05-04T12:25:29.498Z,81.55
2017-05-04T12:26:41.800Z,81.93
2017-05-04T12:27:54.305Z,81.35
2017-05-04T12:29:07.087Z,80.58
2017-05-04T12:30:19.391Z,80.3
2017-05-04T12:31:31.726Z,80.72
2017-05-04T12:32:44.039Z,80.43
2017-05-04T12:33:56.832Z,79.17
2017-05-04T12:35:09.135Z,79.12
2017-05-04T12:36:21.931Z,79.47
2017-05-04T12:37:34.238Z,78.89
2017-05-04T12:38:47.024Z,78.41
2017-05-04T12:39:59.810Z,78.64
2017-05-04T12:41:11.633Z,78.15
2017-05-04T12:42:24.421Z,78.41
2017-05-04T12:43:37.206Z,79.17
2017-05-04T12:44:49.992Z,79.66
2017-05-04T12:46:02.778Z,79.47
2017-05-04T12:47:15.090Z,78.89
2017-05-04T12:48:27.875Z,78.34
2017-05-04T12:49:40.863Z,77.38
2017-05-04T12:50:53.648Z,77.57
2017-05-04T12:52:06.433Z,77.03
2017-05-04T12:53:18.734Z,77.48
2017-05-04T12:54:31.518Z,77.76
2017-05-04T12:55:42.856Z,77.76
2017-05-04T12:56:55.643Z,77.96
2017-05-04T12:58:07.949Z,77.38
2017-05-04T12:59:19.769Z,77.48
2017-05-04T13:00:31.600Z,77.51
2017-05-04T13:01:43.903Z,77.51
2017-05-04T13:02:56.689Z,77.22
2017-05-04T13:04:09.478Z,76.64
2017-05-04T13:05:22.270Z,76.01
2017-05-04T13:06:34.881Z,76.01
2017-05-04T13:07:47.667Z,75.43
2017-05-04T13:09:00.453Z,73.97
2017-05-04T13:10:12.756Z,73.53
2017-05-04T13:11:25.756Z,73.24
2017-05-04T13:12:37.579Z,73.24
2017-05-04T13:13:50.365Z,72.95
2017-05-04T13:15:03.160Z,71.34
2017-05-04T13:16:15.469Z,71.92
2017-05-04T13:17:27.777Z,72.4
2017-05-04T13:18:40.565Z,72.11
2017-05-04T13:19:53.353Z,71.44
2017-05-04T13:21:05.176Z,71.62
2017-05-04T13:22:17.487Z,71.82
2017-05-04T13:23:30.273Z,71.53
2017-05-04T13:24:43.061Z,70.21
2017-05-04T13:25:55.362Z,69.73
2017-05-04T13:27:08.152Z,69.73
2017-05-04T13:28:20.464Z,70.21
2017-05-04T13:29:33.252Z,69.82
2017-05-04T13:30:45.554Z,69.53
2017-05-04T13:31:58.343Z,70.21
2017-05-04T13:33:11.129Z,69.82
2017-05-04T13:34:23.440Z,69.73
2017-05-04T13:35:35.741Z,69.05
2017-05-04T13:36:48.045Z,69.15
2017-05-04T13:38:00.830Z,68.02
2017-05-04T13:39:13.616Z,68.3
2017-05-04T13:40:26.414Z,68.21
2017-05-04T13:41:39.200Z,68.12
2017-05-04T13:42:52.193Z,68.44
2017-05-04T13:44:04.017Z,67.27
2017-05-04T13:45:16.330Z,67.27
2017-05-04T13:46:29.118Z,67.37
2017-05-04T13:47:41.906Z,67.69
2017-05-04T13:48:54.895Z,67.4
2017-05-04T13:50:07.689Z,66.82
2017-05-04T13:51:19.998Z,66.53
2017-05-04T13:52:32.787Z,65.17
2017-05-04T13:53:45.575Z,65.56
2017-05-04T13:54:57.900Z,65.85
2017-05-04T13:56:10.705Z,65.85
2017-05-04T13:57:23.526Z,65.37
2017-05-04T13:58:36.321Z,65.72
2017-05-04T13:59:49.111Z,65.53
2017-05-04T14:01:01.906Z,65.43
2017-05-04T14:02:14.218Z,65.66
2017-05-04T14:03:26.539Z,64.98
2017-05-04T14:04:39.344Z,64.78
2017-05-04T14:05:52.151Z,65.27
2017-05-04T14:07:04.944Z,64.78
2017-05-04T14:08:17.256Z,63.33
2017-05-04T14:09:29.564Z,63.26
2017-05-04T14:10:41.881Z,63.36
2017-05-04T14:11:54.680Z,64.82
2017-05-04T14:13:07.468Z,64.2
2017-05-04T14:14:20.268Z,64.5
2017-05-04T14:15:33.083Z,64.3
2017-05-04T14:16:45.405Z,65.53
2017-05-04T14:17:58.210Z,65.43
2017-05-04T14:19:10.521Z,66.66
2017-05-04T14:20:23.309Z,65.4
2017-05-04T14:21:35.621Z,65.34
2017-05-04T14:22:48.420Z,66.02
2017-05-04T14:24:01.227Z,65.2
2017-05-04T14:25:13.546Z,66.02
2017-05-04T14:26:25.857Z,65.53
2017-05-04T14:27:38.669Z,66.02
2017-05-04T14:28:51.464Z,64.65
2017-05-04T14:30:03.784Z,64.37
2017-05-04T14:31:15.138Z,64.62
2017-05-04T14:32:27.939Z,64.82
2017-05-04T14:33:40.735Z,64.53
2017-05-04T14:34:53.727Z,65.01
2017-05-04T14:36:06.036Z,65.34
2017-05-04T14:37:18.830Z,63.59
2017-05-04T14:38:31.185Z,63.13
2017-05-04T14:39:43.983Z,63.53
2017-05-04T14:40:56.793Z,64.17
2017-05-04T14:42:09.586Z,64.72
2017-05-04T14:43:22.412Z,65.3
2017-05-04T14:44:35.213Z,65.47
2017-05-04T14:45:48.005Z,65.5
2017-05-04T14:47:00.791Z,64.98
2017-05-04T14:48:12.616Z,65.85
2017-05-04T14:49:24.934Z,66.17
2017-05-04T14:50:37.737Z,65.4
2017-05-04T14:51:50.542Z,65.75
2017-05-04T14:53:03.333Z,66.24
2017-05-04T14:54:16.126Z,66.63
2017-05-04T14:55:28.923Z,66.72
2017-05-04T14:56:41.720Z,66.24
2017-05-04T14:57:53.559Z,66.24
2017-05-04T14:59:06.391Z,65.75
2017-05-04T15:00:18.223Z,65.85
2017-05-04T15:01:31.009Z,65.47
2017-05-04T15:02:43.518Z,65.95
2017-05-04T15:03:55.824Z,65.85
2017-05-04T15:05:08.622Z,65.95
2017-05-04T15:06:20.938Z,64.98
2017-05-04T15:07:33.458Z,65.11
2017-05-04T15:08:46.250Z,65.01
2017-05-04T15:09:59.052Z,66.17
2017-05-04T15:11:11.363Z,65.3
2017-05-04T15:12:24.166Z,64.53
2017-05-04T15:13:36.486Z,64.62
2017-05-04T15:14:49.330Z,65.4
2017-05-04T15:16:02.121Z,64.53
2017-05-04T15:17:13.464Z,64.43
2017-05-04T15:18:26.249Z,64.53
2017-05-04T15:19:38.071Z,64.72
2017-05-04T15:20:50.862Z,64.82
2017-05-04T15:22:03.654Z,63.95
2017-05-04T15:23:15.970Z,64.72
2017-05-04T15:24:28.964Z,65.11
2017-05-04T15:25:41.274Z,64.4
2017-05-04T15:26:54.069Z,64.98
2017-05-04T15:28:06.857Z,65.08
2017-05-04T15:29:18.691Z,64.62
2017-05-04T15:30:30.998Z,63.17
2017-05-04T15:31:43.790Z,63.17
2017-05-04T15:32:56.097Z,63.27
2017-05-04T15:34:08.403Z,63.85
2017-05-04T15:35:20.710Z,63.56
2017-05-04T15:36:33.017Z,62.98
2017-05-04T15:37:45.808Z,63.75
2017-05-04T15:38:58.512Z,62.88